createdAt,value
2023-09-21T00:08:02.245Z,95167.47
2023-09-21T00:18:06.786Z,95158.84
2023-09-21T00:28:13.757Z,95133.28
2023-09-21T00:38:16.323Z,95131.38
2023-09-21T00:48:24.004Z,95116.00
2023-09-21T00:58:27.018Z,95121.94
2023-09-21T01:08:31.146Z,95106.97
2023-09-21T01:18:33.956Z,95097.97
2023-09-21T01:28:38.235Z,95100.75
2023-09-21T01:38:45.767Z,95093.41
2023-09-21T01:48:53.203Z,95078.28
2023-09-21T01:58:56.093Z,95062.84
2023-09-21T02:09:01.174Z,95048.31
2023-09-21T02:19:03.833Z,95035.41
2023-09-21T02:29:07.677Z,95022.34
2023-09-21T02:39:11.460Z,95011.81
2023-09-21T02:49:15.820Z,95006.66
2023-09-21T02:59:18.355Z,95006.78
2023-09-21T03:09:23.747Z,94998.66
2023-09-21T03:19:26.534Z,94993.41
2023-09-21T03:29:30.775Z,94982.72
2023-09-21T03:39:33.367Z,94977.19
2023-09-21T03:49:37.263Z,94972.59
2023-09-21T03:59:41.108Z,94965.88
2023-09-21T04:09:45.717Z,94963.81
2023-09-21T04:19:48.797Z,94960.94
2023-09-21T04:29:52.813Z,94945.13
2023-09-21T04:39:55.278Z,94948.16
2023-09-21T04:49:59.603Z,94947.66
2023-09-21T05:00:05.688Z,94944.81
2023-09-21T05:10:13.497Z,94928.53
2023-09-21T05:20:16.730Z,94920.75
2023-09-21T05:30:20.771Z,94923.28
2023-09-21T05:40:23.288Z,94924.34
2023-09-21T05:50:27.097Z,94909.13
2023-09-21T06:00:29.940Z,94920.22
2023-09-21T06:10:33.822Z,94915.91
2023-09-21T06:20:36.569Z,94905.13
2023-09-21T06:30:40.406Z,94914.34
2023-09-21T06:40:42.991Z,94913.44
2023-09-21T06:50:46.944Z,94905.16
2023-09-21T07:00:49.970Z,94913.78
2023-09-21T07:10:53.804Z,94909.16
2023-09-21T07:20:56.320Z,94909.19
2023-09-21T07:31:02.865Z,94893.25
2023-09-21T07:41:07.377Z,94888.59
2023-09-21T07:51:14.218Z,94858.63
2023-09-21T08:01:16.874Z,94848.06
2023-09-21T08:11:20.701Z,94857.28
2023-09-21T08:21:23.972Z,94852.56
2023-09-21T08:31:29.098Z,94841.66
2023-09-21T08:41:31.679Z,94848.81
2023-09-21T08:51:38.639Z,94854.34
2023-09-21T09:01:41.770Z,94850.22
2023-09-21T09:11:46.919Z,94836.34
2023-09-21T09:21:51.983Z,94825.13
2023-09-21T09:31:55.974Z,94820.97
2023-09-21T09:41:58.774Z,94794.81
2023-09-21T09:52:03.082Z,94799.63
2023-09-21T10:02:08.077Z,94791.94
2023-09-21T10:12:13.027Z,94771.16
2023-09-21T10:22:26.477Z,94766.59
2023-09-21T10:32:42.831Z,94749.88
2023-09-21T10:42:45.470Z,94758.28
2023-09-21T10:52:52.120Z,94728.34
2023-09-21T11:02:56.694Z,94717.78
2023-09-21T11:13:01.141Z,94702.03
2023-09-21T11:23:04.399Z,94694.97
2023-09-21T11:33:09.879Z,94670.94
2023-09-21T11:43:14.756Z,94658.16
2023-09-21T11:53:21.041Z,94632.50
2023-09-21T12:03:26.358Z,94635.91
2023-09-21T12:13:30.451Z,94611.16
2023-09-21T12:23:35.349Z,94602.81
2023-09-21T12:33:43.977Z,94580.53
2023-09-21T12:43:46.815Z,94574.88
2023-09-21T12:53:50.617Z,94565.47
2023-09-21T13:03:55.860Z,94546.81
2023-09-21T13:13:59.762Z,94536.53
2023-09-21T13:24:02.264Z,94518.16
2023-09-21T13:34:06.253Z,94511.25
2023-09-21T13:44:11.353Z,94498.63
2023-09-21T13:54:15.195Z,94475.59
2023-09-21T14:04:18.141Z,94477.19
2023-09-21T14:14:22.239Z,94467.94
2023-09-21T14:24:24.827Z,94465.75
2023-09-21T14:34:31.021Z,94458.06
2023-09-21T14:44:33.535Z,94432.72
2023-09-21T14:54:37.483Z,94448.69
2023-09-21T15:04:41.486Z,94447.34
2023-09-21T15:14:45.790Z,94445.81
2023-09-21T15:24:51.649Z,94456.44
2023-09-21T15:34:55.632Z,94460.84
2023-09-21T15:44:58.143Z,94454.69
2023-09-21T15:55:04.302Z,94442.81
2023-09-21T16:05:07.534Z,94435.06
2023-09-21T16:15:12.056Z,94430.56
2023-09-21T16:25:14.904Z,94421.03
2023-09-21T16:35:19.847Z,94406.91
2023-09-21T16:45:22.375Z,94394.31
2023-09-21T16:55:26.329Z,94366.53
2023-09-21T17:05:28.919Z,94350.09
2023-09-21T17:15:32.772Z,94352.94
2023-09-21T17:25:35.278Z,94351.28
2023-09-21T17:35:39.147Z,94347.66
2023-09-21T17:45:41.720Z,94375.81
2023-09-21T17:55:45.649Z,94412.69
2023-09-21T18:05:48.121Z,94426.38
2023-09-21T18:15:52.730Z,94430.25
2023-09-21T18:25:55.401Z,94476.72
2023-09-21T18:35:59.252Z,94531.91
2023-09-21T18:46:01.814Z,94572.91
2023-09-21T18:56:07.047Z,94620.31
2023-09-21T19:06:09.572Z,94634.88
2023-09-21T19:16:13.776Z,94649.91
2023-09-21T19:26:16.281Z,94685.41
2023-09-21T19:36:20.105Z,94709.63
2023-09-21T19:46:24.466Z,94704.75
2023-09-21T19:56:28.472Z,94713.16
2023-09-21T20:06:31.040Z,94704.56
2023-09-21T20:16:37.187Z,94706.00
2023-09-21T20:26:39.767Z,94709.50
2023-09-21T20:36:43.874Z,94711.41
2023-09-21T20:46:46.470Z,94701.84
2023-09-21T20:56:51.416Z,94685.34
2023-09-21T21:06:54.409Z,94655.94
2023-09-21T21:16:58.275Z,94692.06
2023-09-21T21:27:00.914Z,94695.25
2023-09-21T21:37:04.739Z,94714.50
2023-09-21T21:47:07.242Z,94730.53
2023-09-21T21:57:12.010Z,94743.31
2023-09-21T22:07:14.788Z,94743.25
2023-09-21T22:17:18.694Z,94742.44
2023-09-21T22:27:21.377Z,94725.41
2023-09-21T22:37:25.949Z,94717.47
2023-09-21T22:47:28.546Z,94719.50
2023-09-21T22:57:34.720Z,94761.31
2023-09-21T23:07:37.289Z,94789.03
2023-09-21T23:17:42.198Z,94781.03
2023-09-21T23:27:45.006Z,94777.16
2023-09-21T23:37:50.132Z,94788.53
2023-09-21T23:47:52.684Z,94800.59
2023-09-21T23:57:56.608Z,94815.59
